sensor_id;sensor_type;location;lat;lon;timestamp;pressure;altitude;pressure_sealevel;temperature;humidity
21361;BME280;10839;43.206;23.550;2023-04-05T00:00:46;96745.69;;;4.91;100.00
21361;BME280;10839;43.206;23.550;2023-04-05T00:03:12;96736.72;;;4.76;100.00
21361;BME280;10839;43.206;23.550;2023-04-05T00:05:38;96746.72;;;4.66;100.00
21361;BME280;10839;43.206;23.550;2023-04-05T00:08:04;96746.75;;;4.42;100.00
21361;BME280;10839;43.206;23.550;2023-04-05T00:10:38;96742.25;;;4.27;100.00
21361;BME280;10839;43.206;23.550;2023-04-05T00:13:04;96740.44;;;4.27;100.00
21361;BME280;10839;43.206;23.550;2023-04-05T00:15:32;96746.50;;;3.79;100.00
21361;BME280;10839;43.206;23.550;2023-04-05T00:17:57;96747.00;;;3.83;100.00
21361;BME280;10839;43.206;23.550;2023-04-05T00:20:24;96739.69;;;3.69;100.00
21361;BME280;10839;43.206;23.550;2023-04-05T00:22:51;96744.69;;;3.96;100.00
21361;BME280;10839;43.206;23.550;2023-04-05T00:25:17;96754.81;;;3.84;100.00
21361;BME280;10839;43.206;23.550;2023-04-05T00:27:44;96741.66;;;3.67;100.00
21361;BME280;10839;43.206;23.550;2023-04-05T00:30:11;96742.34;;;3.77;100.00
21361;BME280;10839;43.206;23.550;2023-04-05T00:32:37;96737.22;;;3.83;100.00
21361;BME280;10839;43.206;23.550;2023-04-05T00:35:03;96742.72;;;3.90;100.00
21361;BME280;10839;43.206;23.550;2023-04-05T00:37:29;96740.38;;;3.79;100.00
21361;BME280;10839;43.206;23.550;2023-04-05T00:39:57;96735.22;;;3.85;100.00
21361;BME280;10839;43.206;23.550;2023-04-05T00:42:23;96735.41;;;3.84;100.00
21361;BME280;10839;43.206;23.550;2023-04-05T00:44:48;96741.84;;;3.81;100.00
21361;BME280;10839;43.206;23.550;2023-04-05T00:47:14;96741.84;;;3.73;100.00
21361;BME280;10839;43.206;23.550;2023-04-05T00:49:41;96745.69;;;3.79;100.00
21361;BME280;10839;43.206;23.550;2023-04-05T00:52:07;96744.81;;;3.62;100.00
21361;BME280;10839;43.206;23.550;2023-04-05T00:54:33;96742.28;;;3.53;100.00
21361;BME280;10839;43.206;23.550;2023-04-05T00:56:59;96733.00;;;3.57;100.00
21361;BME280;10839;43.206;23.550;2023-04-05T00:59:26;96729.16;;;3.59;100.00
21361;BME280;10839;43.206;23.550;2023-04-05T01:02:00;96729.50;;;3.56;100.00
21361;BME280;10839;43.206;23.550;2023-04-05T01:04:29;96735.34;;;3.76;100.00
21361;BME280;10839;43.206;23.550;2023-04-05T01:07:27;96731.03;;;3.67;100.00
21361;BME280;10839;43.206;23.550;2023-04-05T01:09:57;96734.59;;;3.34;100.00
21361;BME280;10839;43.206;23.550;2023-04-05T01:12:29;96733.94;;;3.40;100.00
21361;BME280;10839;43.206;23.550;2023-04-05T01:14:58;96732.41;;;3.29;100.00
21361;BME280;10839;43.206;23.550;2023-04-05T01:17:28;96716.91;;;3.17;100.00
21361;BME280;10839;43.206;23.550;2023-04-05T01:20:07;96727.44;;;3.34;100.00
21361;BME280;10839;43.206;23.550;2023-04-05T01:23:04;96729.50;;;3.56;100.00
21361;BME280;10839;43.206;23.550;2023-04-05T01:26:03;96730.03;;;3.76;100.00
21361;BME280;10839;43.206;23.550;2023-04-05T01:36:56;96739.94;;;3.50;100.00
21361;BME280;10839;43.206;23.550;2023-04-05T01:39:23;96739.00;;;3.59;100.00
21361;BME280;10839;43.206;23.550;2023-04-05T01:41:50;96739.94;;;3.50;100.00
21361;BME280;10839;43.206;23.550;2023-04-05T01:44:17;96739.19;;;3.24;100.00
21361;BME280;10839;43.206;23.550;2023-04-05T01:46:43;96725.94;;;3.32;100.00
21361;BME280;10839;43.206;23.550;2023-04-05T01:49:09;96732.78;;;3.42;100.00
21361;BME280;10839;43.206;23.550;2023-04-05T01:51:35;96737.63;;;3.55;100.00
21361;BME280;10839;43.206;23.550;2023-04-05T01:54:21;96725.84;;;3.57;100.00
21361;BME280;10839;43.206;23.550;2023-04-05T01:56:47;96721.41;;;3.74;100.00
21361;BME280;10839;43.206;23.550;2023-04-05T01:59:13;96731.38;;;3.80;100.00
21361;BME280;10839;43.206;23.550;2023-04-05T02:01:40;96735.84;;;3.63;100.00
21361;BME280;10839;43.206;23.550;2023-04-05T02:04:06;96726.84;;;3.64;100.00
21361;BME280;10839;43.206;23.550;2023-04-05T02:06:32;96732.69;;;3.76;100.00
21361;BME280;10839;43.206;23.550;2023-04-05T02:09:00;96730.09;;;3.92;100.00
21361;BME280;10839;43.206;23.550;2023-04-05T02:11:26;96727.41;;;3.84;100.00
21361;BME280;10839;43.206;23.550;2023-04-05T02:13:56;96726.75;;;4.06;100.00
21361;BME280;10839;43.206;23.550;2023-04-05T02:16:23;96727.75;;;3.97;100.00
21361;BME280;10839;43.206;23.550;2023-04-05T02:18:50;96726.25;;;3.94;100.00
21361;BME280;10839;43.206;23.550;2023-04-05T02:21:16;96726.38;;;3.61;100.00
21361;BME280;10839;43.206;23.550;2023-04-05T02:23:43;96732.16;;;3.64;100.00
21361;BME280;10839;43.206;23.550;2023-04-05T02:26:10;96735.69;;;3.73;100.00
21361;BME280;10839;43.206;23.550;2023-04-05T02:28:39;96728.78;;;3.46;100.00
21361;BME280;10839;43.206;23.550;2023-04-05T02:31:12;96727.88;;;3.79;100.00
21361;BME280;10839;43.206;23.550;2023-04-05T02:33:41;96735.00;;;3.63;100.00
21361;BME280;10839;43.206;23.550;2023-04-05T02:36:09;96722.66;;;3.46;100.00
21361;BME280;10839;43.206;23.550;2023-04-05T02:38:36;96724.06;;;3.66;100.00
21361;BME280;10839;43.206;23.550;2023-04-05T02:41:02;96733.31;;;3.54;100.00
21361;BME280;10839;43.206;23.550;2023-04-05T02:43:29;96719.69;;;3.57;100.00
21361;BME280;10839;43.206;23.550;2023-04-05T02:45:55;96725.22;;;3.79;100.00
21361;BME280;10839;43.206;23.550;2023-04-05T02:48:22;96722.44;;;3.97;100.00
21361;BME280;10839;43.206;23.550;2023-04-05T02:50:51;96723.63;;;4.11;100.00
21361;BME280;10839;43.206;23.550;2023-04-05T02:53:18;96721.44;;;3.98;100.00
21361;BME280;10839;43.206;23.550;2023-04-05T02:55:52;96722.09;;;4.00;100.00
21361;BME280;10839;43.206;23.550;2023-04-05T02:58:20;96731.38;;;3.80;100.00
21361;BME280;10839;43.206;23.550;2023-04-05T03:00:49;96724.88;;;3.66;100.00
21361;BME280;10839;43.206;23.550;2023-04-05T03:03:26;96715.06;;;3.67;100.00
21361;BME280;10839;43.206;23.550;2023-04-05T03:06:00;96722.88;;;3.68;100.00
21361;BME280;10839;43.206;23.550;2023-04-05T03:08:38;96721.41;;;3.66;100.00
21361;BME280;10839;43.206;23.550;2023-04-05T03:11:11;96716.09;;;3.90;100.00
21361;BME280;10839;43.206;23.550;2023-04-05T03:13:39;96712.75;;;3.88;100.00
21361;BME280;10839;43.206;23.550;2023-04-05T03:16:12;96712.44;;;3.91;100.00
21361;BME280;10839;43.206;23.550;2023-04-05T03:18:40;96725.03;;;3.73;100.00
21361;BME280;10839;43.206;23.550;2023-04-05T03:21:09;96721.06;;;3.61;100.00
21361;BME280;10839;43.206;23.550;2023-04-05T03:23:38;96720.03;;;3.54;100.00
21361;BME280;10839;43.206;23.550;2023-04-05T03:26:05;96713.91;;;3.69;100.00
21361;BME280;10839;43.206;23.550;2023-04-05T03:28:35;96713.41;;;3.66;100.00
21361;BME280;10839;43.206;23.550;2023-04-05T03:31:06;96710.09;;;3.88;100.00
21361;BME280;10839;43.206;23.550;2023-04-05T03:33:35;96704.09;;;3.78;100.00
21361;BME280;10839;43.206;23.550;2023-04-05T03:36:03;96712.75;;;3.88;100.00
21361;BME280;10839;43.206;23.550;2023-04-05T03:38:34;96718.22;;;3.62;100.00
21361;BME280;10839;43.206;23.550;2023-04-05T03:41:19;96720.41;;;3.75;100.00
21361;BME280;10839;43.206;23.550;2023-04-05T03:43:45;96720.84;;;3.54;100.00
21361;BME280;10839;43.206;23.550;2023-04-05T03:46:13;96718.75;;;3.82;100.00
21361;BME280;10839;43.206;23.550;2023-04-05T03:48:40;96717.28;;;4.04;100.00
21361;BME280;10839;43.206;23.550;2023-04-05T03:51:08;96720.44;;;4.07;100.00
21361;BME280;10839;43.206;23.550;2023-04-05T03:53:34;96721.78;;;4.19;100.00
21361;BME280;10839;43.206;23.550;2023-04-05T03:55:59;96720.09;;;4.34;100.00
21361;BME280;10839;43.206;23.550;2023-04-05T03:58:44;96720.63;;;4.06;100.00
21361;BME280;10839;43.206;23.550;2023-04-05T04:01:12;96722.78;;;4.10;100.00
21361;BME280;10839;43.206;23.550;2023-04-05T04:03:39;96731.91;;;3.91;100.00
21361;BME280;10839;43.206;23.550;2023-04-05T04:06:05;96730.44;;;4.05;100.00
21361;BME280;10839;43.206;23.550;2023-04-05T04:08:32;96731.72;;;3.93;100.00
21361;BME280;10839;43.206;23.550;2023-04-05T04:10:59;96724.44;;;4.03;100.00
21361;BME280;10839;43.206;23.550;2023-04-05T04:13:35;96733.25;;;3.96;100.00
21361;BME280;10839;43.206;23.550;2023-04-05T04:16:07;96730.41;;;3.89;100.00
21361;BME280;10839;43.206;23.550;2023-04-05T04:18:51;96730.69;;;3.70;100.00
21361;BME280;10839;43.206;23.550;2023-04-05T04:21:35;96733.03;;;3.81;100.00
21361;BME280;10839;43.206;23.550;2023-04-05T04:24:22;96733.72;;;3.91;100.00
21361;BME280;10839;43.206;23.550;2023-04-05T04:27:07;96736.72;;;3.88;100.00
21361;BME280;10839;43.206;23.550;2023-04-05T04:29:37;96741.75;;;3.99;100.00
21361;BME280;10839;43.206;23.550;2023-04-05T04:32:17;96739.41;;;4.20;100.00
21361;BME280;10839;43.206;23.550;2023-04-05T04:35:15;96734.75;;;4.22;100.00
21361;BME280;10839;43.206;23.550;2023-04-05T04:38:07;96739.41;;;4.20;100.00
21361;BME280;10839;43.206;23.550;2023-04-05T04:40:48;96737.03;;;3.77;100.00
21361;BME280;10839;43.206;23.550;2023-04-05T04:43:23;96745.38;;;3.98;100.00
21361;BME280;10839;43.206;23.550;2023-04-05T04:46:04;96746.22;;;4.23;100.00
21361;BME280;10839;43.206;23.550;2023-04-05T04:48:53;96737.09;;;4.09;100.00
21361;BME280;10839;43.206;23.550;2023-04-05T04:51:32;96745.41;;;4.14;100.00
21361;BME280;10839;43.206;23.550;2023-04-05T04:53:58;96742.75;;;4.22;100.00
21361;BME280;10839;43.206;23.550;2023-04-05T04:56:24;96745.41;;;4.14;100.00
21361;BME280;10839;43.206;23.550;2023-04-05T04:58:54;96749.56;;;4.33;100.00
21361;BME280;10839;43.206;23.550;2023-04-05T05:01:21;96741.75;;;4.15;100.00
21361;BME280;10839;43.206;23.550;2023-04-05T05:03:50;96743.41;;;4.16;100.00
21361;BME280;10839;43.206;23.550;2023-04-05T05:06:21;96751.72;;;4.05;100.00
21361;BME280;10839;43.206;23.550;2023-04-05T05:08:48;96741.75;;;3.99;100.00
21361;BME280;10839;43.206;23.550;2023-04-05T05:11:14;96742.06;;;4.28;100.00
21361;BME280;10839;43.206;23.550;2023-04-05T05:13:41;96734.78;;;4.14;100.00
21361;BME280;10839;43.206;23.550;2023-04-05T05:16:12;96738.44;;;4.37;100.00
21361;BME280;10839;43.206;23.550;2023-04-05T05:18:38;96751.88;;;4.28;100.00
21361;BME280;10839;43.206;23.550;2023-04-05T05:21:06;96744.91;;;4.11;100.00
21361;BME280;10839;43.206;23.550;2023-04-05T05:23:32;96738.75;;;4.02;100.00
21361;BME280;10839;43.206;23.550;2023-04-05T05:25:58;96745.88;;;4.18;100.00
21361;BME280;10839;43.206;23.550;2023-04-05T05:28:26;96750.41;;;4.25;100.00
21361;BME280;10839;43.206;23.550;2023-04-05T05:30:52;96742.06;;;4.12;100.00
21361;BME280;10839;43.206;23.550;2023-04-05T05:33:17;96742.41;;;4.41;100.00
21361;BME280;10839;43.206;23.550;2023-04-05T05:35:47;96741.06;;;4.05;100.00
21361;BME280;10839;43.206;23.550;2023-04-05T05:38:13;96741.06;;;3.89;100.00
21361;BME280;10839;43.206;23.550;2023-04-05T05:40:39;96737.41;;;4.06;100.00
21361;BME280;10839;43.206;23.550;2023-04-05T05:43:05;96757.03;;;4.05;100.00
21361;BME280;10839;43.206;23.550;2023-04-05T05:45:31;96757.38;;;4.26;100.00
21361;BME280;10839;43.206;23.550;2023-04-05T05:47:57;96752.38;;;4.07;100.00
21361;BME280;10839;43.206;23.550;2023-04-05T05:50:23;96748.06;;;4.62;100.00
21361;BME280;10839;43.206;23.550;2023-04-05T05:52:49;96743.06;;;4.75;100.00
21361;BME280;10839;43.206;23.550;2023-04-05T05:55:15;96748.91;;;4.31;100.00
21361;BME280;10839;43.206;23.550;2023-04-05T05:57:41;96756.03;;;4.06;100.00
21361;BME280;10839;43.206;23.550;2023-04-05T06:00:07;96760.72;;;4.20;100.00
21361;BME280;10839;43.206;23.550;2023-04-05T06:02:38;96754.88;;;4.33;100.00
21361;BME280;10839;43.206;23.550;2023-04-05T06:05:05;96759.38;;;4.72;100.00
21361;BME280;10839;43.206;23.550;2023-04-05T06:07:35;96743.41;;;4.32;100.00
21361;BME280;10839;43.206;23.550;2023-04-05T06:10:04;96757.38;;;4.34;100.00
21361;BME280;10839;43.206;23.550;2023-04-05T06:12:30;96754.38;;;4.29;100.00
21361;BME280;10839;43.206;23.550;2023-04-05T06:14:56;96757.38;;;4.66;100.00
21361;BME280;10839;43.206;23.550;2023-04-05T06:17:21;96761.06;;;4.65;100.00
21361;BME280;10839;43.206;23.550;2023-04-05T06:19:47;96769.31;;;5.02;100.00
21361;BME280;10839;43.206;23.550;2023-04-05T06:22:14;96756.41;;;5.30;100.00
21361;BME280;10839;43.206;23.550;2023-04-05T06:24:42;96771.34;;;5.00;100.00
21361;BME280;10839;43.206;23.550;2023-04-05T06:27:08;96770.03;;;4.72;100.00
21361;BME280;10839;43.206;23.550;2023-04-05T06:29:36;96773.59;;;5.19;100.00
21361;BME280;10839;43.206;23.550;2023-04-05T06:32:03;96777.63;;;5.07;100.00
21361;BME280;10839;43.206;23.550;2023-04-05T06:34:29;96784.34;;;4.63;100.00
21361;BME280;10839;43.206;23.550;2023-04-05T06:36:55;96787.63;;;4.97;100.00
21361;BME280;10839;43.206;23.550;2023-04-05T06:39:21;96795.34;;;4.76;100.00
21361;BME280;10839;43.206;23.550;2023-04-05T06:41:47;96792.97;;;4.97;100.00
21361;BME280;10839;43.206;23.550;2023-04-05T06:44:14;96785.28;;;5.02;100.00
21361;BME280;10839;43.206;23.550;2023-04-05T06:46:40;96799.22;;;5.37;100.00
21361;BME280;10839;43.206;23.550;2023-04-05T06:49:06;96791.25;;;5.29;100.00
21361;BME280;10839;43.206;23.550;2023-04-05T06:51:32;96788.28;;;5.23;100.00
21361;BME280;10839;43.206;23.550;2023-04-05T06:53:57;96798.69;;;5.41;100.00
21361;BME280;10839;43.206;23.550;2023-04-05T06:56:24;96803.88;;;5.43;100.00
21361;BME280;10839;43.206;23.550;2023-04-05T06:58:50;96803.84;;;5.59;100.00
21361;BME280;10839;43.206;23.550;2023-04-05T07:01:16;96820.47;;;5.69;100.00
21361;BME280;10839;43.206;23.550;2023-04-05T07:03:42;96820.06;;;5.88;100.00
21361;BME280;10839;43.206;23.550;2023-04-05T07:06:08;96817.72;;;5.93;100.00
21361;BME280;10839;43.206;23.550;2023-04-05T07:08:34;96811.41;;;6.47;100.00
21361;BME280;10839;43.206;23.550;2023-04-05T07:11:00;96819.59;;;7.05;100.00
21361;BME280;10839;43.206;23.550;2023-04-05T07:13:26;96834.59;;;6.46;100.00
21361;BME280;10839;43.206;23.550;2023-04-05T07:15:59;96829.53;;;6.29;100.00
21361;BME280;10839;43.206;23.550;2023-04-05T07:18:26;96830.13;;;6.84;100.00
21361;BME280;10839;43.206;23.550;2023-04-05T07:20:56;96841.47;;;5.72;100.00
21361;BME280;10839;43.206;23.550;2023-04-05T07:23:26;96837.94;;;6.18;100.00
21361;BME280;10839;43.206;23.550;2023-04-05T07:25:53;96840.59;;;6.71;100.00
21361;BME280;10839;43.206;23.550;2023-04-05T07:28:19;96851.41;;;6.55;100.00
21361;BME280;10839;43.206;23.550;2023-04-05T07:30:45;96851.53;;;6.62;100.00
21361;BME280;10839;43.206;23.550;2023-04-05T07:33:11;96848.25;;;6.97;98.53
21361;BME280;10839;43.206;23.550;2023-04-05T07:35:37;96853.06;;;7.01;97.01
21361;BME280;10839;43.206;23.550;2023-04-05T07:38:03;96855.50;;;6.66;99.71
21361;BME280;10839;43.206;23.550;2023-04-05T07:40:29;96850.34;;;6.87;100.00
21361;BME280;10839;43.206;23.550;2023-04-05T07:42:55;96848.69;;;6.63;99.53
21361;BME280;10839;43.206;23.550;2023-04-05T07:45:21;96850.34;;;6.64;100.00
21361;BME280;10839;43.206;23.550;2023-04-05T07:47:47;96845.09;;;6.93;100.00
21361;BME280;10839;43.206;23.550;2023-04-05T07:50:13;96853.81;;;7.76;98.88
21361;BME280;10839;43.206;23.550;2023-04-05T07:52:40;96854.66;;;7.76;95.49
21361;BME280;10839;43.206;23.550;2023-04-05T07:55:09;96852.97;;;7.75;95.44
21361;BME280;10839;43.206;23.550;2023-04-05T07:57:35;96859.69;;;8.15;93.29
21361;BME280;10839;43.206;23.550;2023-04-05T08:00:02;96862.94;;;8.11;91.71
21361;BME280;10839;43.206;23.550;2023-04-05T08:02:38;96868.84;;;7.62;92.12
21361;BME280;10839;43.206;23.550;2023-04-05T08:05:05;96873.31;;;7.85;92.77
21361;BME280;10839;43.206;23.550;2023-04-05T08:07:31;96868.88;;;8.06;92.47
21361;BME280;10839;43.206;23.550;2023-04-05T08:09:57;96866.09;;;7.70;95.12
21361;BME280;10839;43.206;23.550;2023-04-05T08:12:25;96868.41;;;7.88;93.89
21361;BME280;10839;43.206;23.550;2023-04-05T08:14:51;96866.47;;;7.67;93.96
21361;BME280;10839;43.206;23.550;2023-04-05T08:17:17;96874.78;;;7.72;94.87
21361;BME280;10839;43.206;23.550;2023-04-05T08:19:43;96868.56;;;7.72;93.55
21361;BME280;10839;43.206;23.550;2023-04-05T08:22:09;96869.50;;;7.94;93.07
21361;BME280;10839;43.206;23.550;2023-04-05T08:24:36;96869.97;;;7.82;93.41
21361;BME280;10839;43.206;23.550;2023-04-05T08:27:02;96869.78;;;7.99;92.39
21361;BME280;10839;43.206;23.550;2023-04-05T08:29:27;96879.22;;;8.24;93.13
21361;BME280;10839;43.206;23.550;2023-04-05T08:31:55;96873.66;;;8.11;90.22
21361;BME280;10839;43.206;23.550;2023-04-05T08:34:23;96872.38;;;7.77;91.68
21361;BME280;10839;43.206;23.550;2023-04-05T08:36:49;96874.97;;;7.86;93.75
21361;BME280;10839;43.206;23.550;2023-04-05T08:39:16;96875.13;;;7.99;91.87
21361;BME280;10839;43.206;23.550;2023-04-05T08:41:49;96880.41;;;7.77;88.88
21361;BME280;10839;43.206;23.550;2023-04-05T08:44:21;96876.25;;;7.90;89.16
21361;BME280;10839;43.206;23.550;2023-04-05T08:46:51;96887.31;;;8.16;87.59
21361;BME280;10839;43.206;23.550;2023-04-05T08:49:18;96881.69;;;8.11;86.78
21361;BME280;10839;43.206;23.550;2023-04-05T08:51:44;96881.25;;;7.93;89.30
21361;BME280;10839;43.206;23.550;2023-04-05T08:54:10;96879.28;;;8.16;90.21
21361;BME280;10839;43.206;23.550;2023-04-05T08:56:37;96877.16;;;7.82;90.87
21361;BME280;10839;43.206;23.550;2023-04-05T08:59:09;96875.34;;;7.82;92.03
21361;BME280;10839;43.206;23.550;2023-04-05T09:01:38;96876.88;;;8.35;87.92
21361;BME280;10839;43.206;23.550;2023-04-05T09:04:10;96880.78;;;8.18;88.28
21361;BME280;10839;43.206;23.550;2023-04-05T09:06:39;96871.75;;;7.90;88.82
21361;BME280;10839;43.206;23.550;2023-04-05T09:09:07;96879.38;;;8.37;88.52
21361;BME280;10839;43.206;23.550;2023-04-05T09:11:34;96875.03;;;8.36;87.79
21361;BME280;10839;43.206;23.550;2023-04-05T09:14:04;96880.31;;;7.86;88.68
21361;BME280;10839;43.206;23.550;2023-04-05T09:16:33;96876.09;;;7.76;88.92
21361;BME280;10839;43.206;23.550;2023-04-05T09:19:02;96879.13;;;7.88;89.19
21361;BME280;10839;43.206;23.550;2023-04-05T09:21:27;96883.06;;;8.36;86.44
21361;BME280;10839;43.206;23.550;2023-04-05T09:23:56;96873.00;;;8.09;86.53
21361;BME280;10839;43.206;23.550;2023-04-05T09:26:25;96886.50;;;8.01;86.08
21361;BME280;10839;43.206;23.550;2023-04-05T09:28:58;96877.75;;;8.07;85.72
21361;BME280;10839;43.206;23.550;2023-04-05T09:31:35;96886.25;;;8.25;85.01
21361;BME280;10839;43.206;23.550;2023-04-05T09:34:07;96886.06;;;8.62;82.14
21361;BME280;10839;43.206;23.550;2023-04-05T09:36:34;96884.56;;;8.24;82.89
21361;BME280;10839;43.206;23.550;2023-04-05T09:39:05;96880.50;;;7.99;84.92
21361;BME280;10839;43.206;23.550;2023-04-05T09:41:33;96876.75;;;8.58;82.61
21361;BME280;10839;43.206;23.550;2023-04-05T09:43:59;96882.16;;;8.29;83.19
21361;BME280;10839;43.206;23.550;2023-04-05T09:46:35;96890.19;;;8.29;82.47
21361;BME280;10839;43.206;23.550;2023-04-05T09:49:05;96886.41;;;8.38;82.42
21361;BME280;10839;43.206;23.550;2023-04-05T09:51:36;96887.88;;;8.97;77.95
21361;BME280;10839;43.206;23.550;2023-04-05T09:54:08;96878.94;;;8.69;79.58
21361;BME280;10839;43.206;23.550;2023-04-05T09:56:37;96884.38;;;8.40;81.28
21361;BME280;10839;43.206;23.550;2023-04-05T09:59:09;96894.41;;;8.88;80.92
21361;BME280;10839;43.206;23.550;2023-04-05T10:01:36;96888.41;;;9.07;78.94
21361;BME280;10839;43.206;23.550;2023-04-05T10:04:04;96898.34;;;8.71;80.81
21361;BME280;10839;43.206;23.550;2023-04-05T10:06:38;96886.84;;;8.77;80.43
21361;BME280;10839;43.206;23.550;2023-04-05T10:09:05;96894.41;;;8.88;78.85
21361;BME280;10839;43.206;23.550;2023-04-05T10:11:32;96884.69;;;8.66;81.61
21361;BME280;10839;43.206;23.550;2023-04-05T10:14:06;96890.94;;;8.37;83.08
21361;BME280;10839;43.206;23.550;2023-04-05T10:20:06;96894.94;;;8.27;83.55
21361;BME280;10839;43.206;23.550;2023-04-05T10:25:54;96896.94;;;7.96;82.25
21361;BME280;10839;43.206;23.550;2023-04-05T10:28:35;96888.06;;;7.80;80.06
21361;BME280;10839;43.206;23.550;2023-04-05T10:31:21;96897.31;;;7.93;81.10
21361;BME280;10839;43.206;23.550;2023-04-05T10:33:59;96890.66;;;7.89;83.07
21361;BME280;10839;43.206;23.550;2023-04-05T10:41:41;96891.22;;;7.99;83.03
21361;BME280;10839;43.206;23.550;2023-04-05T10:44:10;96899.91;;;8.01;82.04
21361;BME280;10839;43.206;23.550;2023-04-05T10:46:36;96903.75;;;7.83;82.37
21361;BME280;10839;43.206;23.550;2023-04-05T10:51:56;96901.75;;;8.15;81.75
21361;BME280;10839;43.206;23.550;2023-04-05T10:54:23;96900.47;;;7.82;84.15
21361;BME280;10839;43.206;23.550;2023-04-05T10:56:50;96896.84;;;8.18;83.66
21361;BME280;10839;43.206;23.550;2023-04-05T10:59:17;96895.28;;;8.24;82.25
21361;BME280;10839;43.206;23.550;2023-04-05T11:01:45;96898.81;;;8.10;83.23
21361;BME280;10839;43.206;23.550;2023-04-05T11:04:15;96898.63;;;7.97;84.95
21361;BME280;10839;43.206;23.550;2023-04-05T11:06:42;96900.81;;;8.22;82.42
21361;BME280;10839;43.206;23.550;2023-04-05T11:09:17;96900.66;;;8.24;81.54
21361;BME280;10839;43.206;23.550;2023-04-05T11:11:47;96891.31;;;7.76;82.28
21361;BME280;10839;43.206;23.550;2023-04-05T11:14:17;96900.28;;;7.98;83.99
21361;BME280;10839;43.206;23.550;2023-04-05T11:16:46;96898.63;;;7.97;81.00
21361;BME280;10839;43.206;23.550;2023-04-05T11:19:17;96901.31;;;7.97;82.13
21361;BME280;10839;43.206;23.550;2023-04-05T11:21:42;96906.00;;;8.24;81.06
21361;BME280;10839;43.206;23.550;2023-04-05T11:24:12;96905.09;;;8.17;79.61
21361;BME280;10839;43.206;23.550;2023-04-05T11:29:08;96893.00;;;7.92;81.43
21361;BME280;10839;43.206;23.550;2023-04-05T11:31:34;96898.03;;;8.16;80.53
21361;BME280;10839;43.206;23.550;2023-04-05T11:34:03;96901.75;;;8.15;80.37
21361;BME280;10839;43.206;23.550;2023-04-05T11:36:42;96892.16;;;7.76;82.07
21361;BME280;10839;43.206;23.550;2023-04-05T11:41:44;96906.19;;;8.08;80.39
21361;BME280;10839;43.206;23.550;2023-04-05T11:44:14;96900.28;;;7.68;80.50
21361;BME280;10839;43.206;23.550;2023-04-05T11:46:41;96895.94;;;7.97;79.72
21361;BME280;10839;43.206;23.550;2023-04-05T11:49:08;96901.56;;;7.72;79.72
21361;BME280;10839;43.206;23.550;2023-04-05T11:51:34;96903.00;;;7.60;81.78
21361;BME280;10839;43.206;23.550;2023-04-05T11:54:00;96921.13;;;7.58;82.02
21361;BME280;10839;43.206;23.550;2023-04-05T11:56:26;96907.75;;;8.17;80.07
21361;BME280;10839;43.206;23.550;2023-04-05T11:58:57;96908.97;;;8.00;78.69
21361;BME280;10839;43.206;23.550;2023-04-05T12:01:24;96907.75;;;7.73;80.30
21361;BME280;10839;43.206;23.550;2023-04-05T12:03:54;96908.69;;;7.95;80.63
21361;BME280;10839;43.206;23.550;2023-04-05T12:06:22;96912.44;;;7.86;80.07
21361;BME280;10839;43.206;23.550;2023-04-05T12:08:48;96914.56;;;7.61;79.84
21361;BME280;10839;43.206;23.550;2023-04-05T12:11:28;96923.72;;;8.10;78.26
21361;BME280;10839;43.206;23.550;2023-04-05T12:13:58;96923.72;;;7.96;79.09
21361;BME280;10839;43.206;23.550;2023-04-05T12:16:26;96916.34;;;7.68;79.89
21361;BME280;10839;43.206;23.550;2023-04-05T12:18:54;96923.16;;;7.86;80.91
21361;BME280;10839;43.206;23.550;2023-04-05T12:21:21;96923.28;;;8.07;80.05
21361;BME280;10839;43.206;23.550;2023-04-05T12:23:47;96918.66;;;7.71;82.21
21361;BME280;10839;43.206;23.550;2023-04-05T12:26:14;96916.81;;;7.87;83.17
21361;BME280;10839;43.206;23.550;2023-04-05T12:31:17;96921.31;;;7.71;83.47
21361;BME280;10839;43.206;23.550;2023-04-05T12:34:00;96923.16;;;7.56;84.46
21361;BME280;10839;43.206;23.550;2023-04-05T12:36:29;96925.66;;;7.72;84.36
21361;BME280;10839;43.206;23.550;2023-04-05T12:38:59;96932.03;;;7.71;84.47
21361;BME280;10839;43.206;23.550;2023-04-05T12:41:30;96921.63;;;7.39;84.69
21361;BME280;10839;43.206;23.550;2023-04-05T12:43:56;96924.00;;;7.71;84.12
21361;BME280;10839;43.206;23.550;2023-04-05T12:46:45;96929.00;;;7.89;83.07
21361;BME280;10839;43.206;23.550;2023-04-05T12:49:14;96923.81;;;7.58;86.44
21361;BME280;10839;43.206;23.550;2023-04-05T12:51:49;96921.69;;;7.68;86.77
21361;BME280;10839;43.206;23.550;2023-04-05T12:54:22;96921.88;;;7.82;88.12
21361;BME280;10839;43.206;23.550;2023-04-05T12:56:49;96920.09;;;7.59;88.59
21361;BME280;10839;43.206;23.550;2023-04-05T12:59:18;96921.75;;;7.60;91.18
21361;BME280;10839;43.206;23.550;2023-04-05T13:01:44;96922.22;;;7.78;88.32
21361;BME280;10839;43.206;23.550;2023-04-05T13:04:10;96925.91;;;7.48;90.05
21361;BME280;10839;43.206;23.550;2023-04-05T13:06:36;96923.63;;;7.37;92.36
21361;BME280;10839;43.206;23.550;2023-04-05T13:09:02;96925.75;;;7.64;90.23
21361;BME280;10839;43.206;23.550;2023-04-05T13:11:28;96921.22;;;7.65;89.74
21361;BME280;10839;43.206;23.550;2023-04-05T13:13:54;96920.44;;;7.19;91.58
21361;BME280;10839;43.206;23.550;2023-04-05T13:16:20;96913.97;;;7.51;91.13
21361;BME280;10839;43.206;23.550;2023-04-05T13:18:46;96910.81;;;7.33;90.69
21361;BME280;10839;43.206;23.550;2023-04-05T13:21:12;96915.09;;;7.19;91.83
21361;BME280;10839;43.206;23.550;2023-04-05T13:23:39;96916.63;;;7.36;91.83
21361;BME280;10839;43.206;23.550;2023-04-05T13:26:07;96926.50;;;7.36;92.65
21361;BME280;10839;43.206;23.550;2023-04-05T13:28:33;96923.19;;;7.11;93.59
21361;BME280;10839;43.206;23.550;2023-04-05T13:31:02;96924.75;;;7.28;95.20
21361;BME280;10839;43.206;23.550;2023-04-05T13:33:32;96922.84;;;7.14;93.07
21361;BME280;10839;43.206;23.550;2023-04-05T13:35:58;96928.59;;;6.81;92.28